Terminal Aerodrome Forecast
Issued by NWS Midland/Odessa, TX

Home | Current Version | Previous Version | Text Only | Print | Product List | Glossary On
Versions: 1 2 3 4 5 6 7 8 9 10 11 12 13 14 15 16 17 18
000
FTUS44 KMAF 121100
TAFMAF
TAF
KMAF 121121Z 1212/1312 14013KT P6SM SCT025 BKN200
      TEMPO 1212/1216 BKN025
     FM121600 16016G25KT P6SM BKN060 BKN200
     FM130000 15009KT P6SM FEW060 SCT250=

USA.gov is the U.S. government's official web portal to all federal, state and local government web resources and services.